createdAt,value
2016-09-30T00:00:42.238Z,15.57
2016-09-30T00:01:42.249Z,15.54
2016-09-30T00:02:42.284Z,15.52
2016-09-30T00:03:42.304Z,15.59
2016-09-30T00:04:42.314Z,15.51
2016-09-30T00:05:42.346Z,15.58
2016-09-30T00:06:42.357Z,15.58
2016-09-30T00:07:42.385Z,15.55
2016-09-30T00:08:42.401Z,15.54
2016-09-30T00:09:42.423Z,15.62
2016-09-30T00:10:42.436Z,15.57
2016-09-30T00:11:42.465Z,15.61
2016-09-30T00:12:42.468Z,15.57
2016-09-30T00:13:42.507Z,15.64
2016-09-30T00:14:42.538Z,15.58
2016-09-30T00:15:42.537Z,15.58
2016-09-30T00:16:42.562Z,15.58
2016-09-30T00:17:42.574Z,15.59
2016-09-30T00:18:42.591Z,15.58
2016-09-30T00:19:42.617Z,15.62
2016-09-30T00:20:42.641Z,15.59
2016-09-30T00:21:42.647Z,15.61
2016-09-30T00:22:42.675Z,15.68
2016-09-30T00:23:42.695Z,15.68
2016-09-30T00:24:42.730Z,15.61
2016-09-30T00:25:42.735Z,15.61
2016-09-30T00:26:42.738Z,15.58
2016-09-30T00:27:42.767Z,15.59
2016-09-30T00:28:42.795Z,15.64
2016-09-30T00:29:42.799Z,15.64
2016-09-30T00:30:42.820Z,15.58
2016-09-30T00:31:42.863Z,15.59
2016-09-30T00:32:42.865Z,15.67
2016-09-30T00:33:42.900Z,15.61
2016-09-30T00:34:42.907Z,15.57
2016-09-30T00:35:42.937Z,15.67
2016-09-30T00:36:42.941Z,15.72
2016-09-30T00:37:42.980Z,15.67
2016-09-30T00:38:42.991Z,15.64
2016-09-30T00:39:43.007Z,15.55
2016-09-30T00:40:43.023Z,15.58
2016-09-30T00:41:43.054Z,15.55
2016-09-30T00:42:43.059Z,15.61
2016-09-30T00:43:43.076Z,15.57
2016-09-30T00:44:43.115Z,15.57
2016-09-30T00:45:43.133Z,15.57
2016-09-30T00:46:43.143Z,15.55
2016-09-30T00:47:43.181Z,15.57
2016-09-30T00:48:43.194Z,15.61
2016-09-30T00:49:43.212Z,15.61
2016-09-30T00:50:43.227Z,15.61
2016-09-30T00:51:43.246Z,15.57
2016-09-30T00:52:43.278Z,15.61
2016-09-30T00:53:43.284Z,15.58
2016-09-30T00:54:43.304Z,15.72
2016-09-30T00:55:43.330Z,15.67
2016-09-30T00:56:43.340Z,15.7
2016-09-30T00:57:43.362Z,15.77
2016-09-30T00:58:43.380Z,15.73
2016-09-30T00:59:43.405Z,15.64
2016-09-30T01:00:43.445Z,15.68
2016-09-30T01:01:43.430Z,15.77
2016-09-30T01:02:43.468Z,15.72
2016-09-30T01:03:43.482Z,15.67
2016-09-30T01:04:43.497Z,15.73
2016-09-30T01:05:43.533Z,15.68
2016-09-30T01:06:43.538Z,15.62
2016-09-30T01:07:43.569Z,15.64
2016-09-30T01:08:43.572Z,15.67
2016-09-30T01:09:43.619Z,15.68
2016-09-30T01:10:43.621Z,15.65
2016-09-30T01:11:43.659Z,15.58
2016-09-30T01:12:43.651Z,15.61
2016-09-30T01:13:43.689Z,15.64
2016-09-30T01:14:43.688Z,15.72
2016-09-30T01:15:43.718Z,15.59
2016-09-30T01:16:43.739Z,15.68
2016-09-30T01:17:43.771Z,15.59
2016-09-30T01:18:43.775Z,15.61
2016-09-30T01:19:43.797Z,15.67
2016-09-30T01:20:43.826Z,15.68
2016-09-30T01:21:43.845Z,15.68
2016-09-30T01:22:43.858Z,15.65
2016-09-30T01:23:43.875Z,15.68
2016-09-30T01:24:43.901Z,15.67
2016-09-30T01:25:43.919Z,15.76
2016-09-30T01:26:43.939Z,15.76
2016-09-30T01:27:43.963Z,15.79
2016-09-30T01:28:43.976Z,15.76
2016-09-30T01:29:44.003Z,15.79
2016-09-30T01:30:44.026Z,15.8
2016-09-30T01:31:44.054Z,15.88
2016-09-30T01:32:44.042Z,15.75
2016-09-30T01:33:44.089Z,15.73
2016-09-30T01:34:44.106Z,15.86
2016-09-30T01:35:44.122Z,15.75
2016-09-30T01:36:44.142Z,15.75
2016-09-30T01:37:44.160Z,15.72
2016-09-30T01:38:44.183Z,15.68
2016-09-30T01:39:44.196Z,15.73
2016-09-30T01:40:44.218Z,15.73
2016-09-30T01:41:44.257Z,15.73
2016-09-30T01:42:44.257Z,15.7
2016-09-30T01:43:44.278Z,15.82
2016-09-30T01:44:44.313Z,15.75
2016-09-30T01:45:44.300Z,15.76
2016-09-30T01:46:44.341Z,15.77
2016-09-30T01:47:44.373Z,15.8
2016-09-30T01:48:44.381Z,15.75
2016-09-30T01:49:44.396Z,15.68
2016-09-30T01:50:44.420Z,15.79
2016-09-30T01:51:44.442Z,15.73
2016-09-30T01:52:44.458Z,15.72
2016-09-30T01:53:44.468Z,15.79
2016-09-30T01:54:44.506Z,15.75
2016-09-30T01:55:44.537Z,15.77
2016-09-30T01:56:44.544Z,15.76
2016-09-30T01:57:44.568Z,15.76
2016-09-30T01:58:44.571Z,15.76
2016-09-30T01:59:44.616Z,15.76
2016-09-30T02:00:44.618Z,15.77
2016-09-30T02:01:44.648Z,15.79
2016-09-30T02:02:44.666Z,15.77
2016-09-30T02:03:44.696Z,15.77
2016-09-30T02:04:44.704Z,15.76
2016-09-30T02:05:44.719Z,15.8
2016-09-30T02:06:44.724Z,15.83
2016-09-30T02:07:44.752Z,15.72
2016-09-30T02:08:44.778Z,15.76
2016-09-30T02:09:44.795Z,15.77
2016-09-30T02:10:44.813Z,15.86
2016-09-30T02:11:44.826Z,15.83
2016-09-30T02:12:44.849Z,15.8
2016-09-30T02:13:44.888Z,15.82
2016-09-30T02:14:44.899Z,15.8
2016-09-30T02:15:44.924Z,15.86
2016-09-30T02:16:44.940Z,15.86
2016-09-30T02:17:44.954Z,15.83
2016-09-30T02:18:44.977Z,15.75
2016-09-30T02:19:44.998Z,15.83
2016-09-30T02:20:45.012Z,15.72
2016-09-30T02:21:45.033Z,15.76
2016-09-30T02:22:45.065Z,15.76
2016-09-30T02:23:45.079Z,15.77
2016-09-30T02:24:45.108Z,15.79
2016-09-30T02:25:45.116Z,15.8
2016-09-30T02:26:45.139Z,15.79
2016-09-30T02:27:45.159Z,15.8
2016-09-30T02:28:45.180Z,15.8
2016-09-30T02:29:45.203Z,15.77
2016-09-30T02:30:45.218Z,15.73
2016-09-30T02:31:45.231Z,15.76
2016-09-30T02:32:45.589Z,15.82
2016-09-30T02:33:45.270Z,15.83
2016-09-30T02:34:45.285Z,15.72
2016-09-30T02:35:45.322Z,15.73
2016-09-30T02:36:45.337Z,15.76
2016-09-30T02:37:45.358Z,15.79
2016-09-30T02:38:45.380Z,15.79
2016-09-30T02:39:45.404Z,15.77
2016-09-30T02:40:45.407Z,15.73
2016-09-30T02:41:45.436Z,15.79
2016-09-30T02:42:45.462Z,15.83
2016-09-30T02:43:45.498Z,15.76
2016-09-30T02:44:45.493Z,15.7
2016-09-30T02:45:45.525Z,15.75
2016-09-30T02:46:45.543Z,15.75
2016-09-30T02:47:45.561Z,15.61
2016-09-30T02:48:45.570Z,15.76
2016-09-30T02:49:45.596Z,15.7
2016-09-30T02:50:45.614Z,15.7
2016-09-30T02:51:45.633Z,15.64
2016-09-30T02:52:45.649Z,15.62
2016-09-30T02:53:45.689Z,15.73
2016-09-30T02:54:45.690Z,15.68
2016-09-30T02:55:45.714Z,15.76
2016-09-30T02:56:45.730Z,15.68
2016-09-30T02:57:45.758Z,15.7
2016-09-30T02:58:45.769Z,15.68
2016-09-30T02:59:45.815Z,15.68
2016-09-30T03:00:45.824Z,15.7
2016-09-30T03:01:45.839Z,15.65
2016-09-30T03:02:45.847Z,15.65
2016-09-30T03:03:45.872Z,15.64
2016-09-30T03:04:45.904Z,15.68
2016-09-30T03:05:45.905Z,15.64
2016-09-30T03:06:45.948Z,15.72
2016-09-30T03:07:45.953Z,15.64
2016-09-30T03:08:45.969Z,15.65
2016-09-30T03:09:45.986Z,15.64
2016-09-30T03:10:46.019Z,15.72
2016-09-30T03:11:46.037Z,15.68
2016-09-30T03:12:46.043Z,15.68
2016-09-30T03:13:46.078Z,15.65
2016-09-30T03:14:46.083Z,15.77
2016-09-30T03:15:46.129Z,15.77
2016-09-30T03:16:46.123Z,15.67
2016-09-30T03:17:46.166Z,15.7
2016-09-30T03:18:46.168Z,15.64
2016-09-30T03:19:46.202Z,15.68
2016-09-30T03:20:46.223Z,15.61
2016-09-30T03:21:46.238Z,15.67
2016-09-30T03:22:46.260Z,15.62
2016-09-30T03:23:46.271Z,15.7
2016-09-30T03:24:46.303Z,15.67
2016-09-30T03:25:46.320Z,15.59
2016-09-30T03:26:46.316Z,15.57
2016-09-30T03:27:46.367Z,15.68
2016-09-30T03:28:46.359Z,15.61
2016-09-30T03:29:46.390Z,15.68
2016-09-30T03:30:46.409Z,15.67
2016-09-30T03:31:46.432Z,15.72
2016-09-30T03:32:46.443Z,15.62
2016-09-30T03:33:46.477Z,15.65
2016-09-30T03:34:46.489Z,15.65
2016-09-30T03:35:46.507Z,15.7
2016-09-30T03:36:46.523Z,15.7
2016-09-30T03:37:46.548Z,15.65
2016-09-30T03:38:46.556Z,15.75
2016-09-30T03:39:46.604Z,15.64
2016-09-30T03:40:46.605Z,15.65
2016-09-30T03:41:46.643Z,15.75
2016-09-30T03:42:46.652Z,15.79
2016-09-30T03:43:46.667Z,15.68
2016-09-30T03:44:46.683Z,15.7
2016-09-30T03:45:46.702Z,15.68
2016-09-30T03:46:46.721Z,15.75
2016-09-30T03:47:46.757Z,15.79
2016-09-30T03:48:46.760Z,15.75
2016-09-30T03:49:46.792Z,15.79
2016-09-30T03:50:46.809Z,15.77
2016-09-30T03:51:46.825Z,15.77
2016-09-30T03:52:46.844Z,15.79
2016-09-30T03:53:46.889Z,15.86
2016-09-30T03:54:46.882Z,15.75
2016-09-30T03:55:46.911Z,15.76
2016-09-30T03:56:46.933Z,15.76
2016-09-30T03:57:46.942Z,15.76
2016-09-30T03:58:46.969Z,15.84
2016-09-30T03:59:46.989Z,15.82
2016-09-30T04:01:47.041Z,15.76
2016-09-30T04:02:47.056Z,15.77
2016-09-30T04:03:47.088Z,15.82
2016-09-30T04:04:47.099Z,15.75
2016-09-30T04:05:47.115Z,15.75
2016-09-30T04:06:47.131Z,15.67
2016-09-30T04:07:47.156Z,15.76
2016-09-30T04:08:47.177Z,15.79
2016-09-30T04:09:47.199Z,15.65
2016-09-30T04:10:47.225Z,15.75
2016-09-30T04:11:47.234Z,15.64
2016-09-30T04:12:47.258Z,15.7
2016-09-30T04:13:47.282Z,15.61
2016-09-30T04:14:47.299Z,15.55
2016-09-30T04:15:47.335Z,15.59
2016-09-30T04:16:47.339Z,15.67
2016-09-30T04:17:47.354Z,15.59
2016-09-30T04:18:47.378Z,15.67
2016-09-30T04:19:47.400Z,15.67
2016-09-30T04:20:47.421Z,15.7
2016-09-30T04:21:47.437Z,15.65
2016-09-30T04:22:47.448Z,15.67
2016-09-30T04:23:47.477Z,15.65
2016-09-30T04:24:47.488Z,15.65
2016-09-30T04:25:47.508Z,15.7
2016-09-30T04:26:47.526Z,15.64
2016-09-30T04:27:47.557Z,15.68
2016-09-30T04:28:47.587Z,15.7
2016-09-30T04:29:47.593Z,15.64
2016-09-30T04:30:47.622Z,15.61
2016-09-30T04:31:47.641Z,15.68
2016-09-30T04:32:47.647Z,15.67
2016-09-30T04:33:47.677Z,15.65
2016-09-30T04:34:47.702Z,15.64
2016-09-30T04:35:47.719Z,15.57
2016-09-30T04:36:47.735Z,15.65
2016-09-30T04:37:47.767Z,15.55
2016-09-30T04:38:47.768Z,15.57
2016-09-30T04:39:47.801Z,15.64
2016-09-30T04:40:47.814Z,15.61
2016-09-30T04:41:47.836Z,15.55
2016-09-30T04:42:47.861Z,15.62
2016-09-30T04:43:47.871Z,15.59
2016-09-30T04:44:47.898Z,15.61
2016-09-30T04:45:47.914Z,15.57
2016-09-30T04:46:47.944Z,15.58
2016-09-30T04:47:47.945Z,15.58
2016-09-30T04:48:47.970Z,15.58
2016-09-30T04:49:48.001Z,15.59
2016-09-30T04:50:47.999Z,15.61
2016-09-30T04:51:48.032Z,15.7
2016-09-30T04:52:48.072Z,15.65
2016-09-30T04:53:48.062Z,15.62
2016-09-30T04:54:48.082Z,15.67
2016-09-30T04:55:48.120Z,15.65
2016-09-30T04:56:48.137Z,15.72
2016-09-30T04:57:48.467Z,15.72
2016-09-30T04:58:48.162Z,15.64
2016-09-30T04:59:48.186Z,15.68
2016-09-30T05:00:48.216Z,15.73
2016-09-30T05:01:48.230Z,15.76
2016-09-30T05:02:48.262Z,15.76
2016-09-30T05:03:48.283Z,15.64
2016-09-30T05:04:48.286Z,15.68
2016-09-30T05:05:48.314Z,15.68
2016-09-30T05:06:48.326Z,15.68
2016-09-30T05:07:48.366Z,15.65
2016-09-30T05:08:48.370Z,15.67
2016-09-30T05:09:48.415Z,15.62
2016-09-30T05:10:48.398Z,15.68
2016-09-30T05:11:48.439Z,15.64
2016-09-30T05:12:48.456Z,15.67
2016-09-30T05:13:48.480Z,15.75
2016-09-30T05:14:48.472Z,15.59
2016-09-30T05:15:48.511Z,15.61
2016-09-30T05:16:48.531Z,15.72
2016-09-30T05:17:48.556Z,15.59
2016-09-30T05:18:48.568Z,15.58
2016-09-30T05:19:48.597Z,15.58
2016-09-30T05:20:48.607Z,15.64
2016-09-30T05:21:48.635Z,15.58
2016-09-30T05:22:48.651Z,15.59
2016-09-30T05:23:48.669Z,15.59
2016-09-30T05:24:48.674Z,15.61
2016-09-30T05:25:48.724Z,15.59
2016-09-30T05:26:48.740Z,15.59
2016-09-30T05:27:48.752Z,15.61
2016-09-30T05:28:48.778Z,15.62
2016-09-30T05:29:48.802Z,15.62
2016-09-30T05:30:48.817Z,15.58
2016-09-30T05:31:48.840Z,15.57
2016-09-30T05:32:48.841Z,15.55
2016-09-30T05:33:48.870Z,15.54
2016-09-30T05:34:48.886Z,15.57
2016-09-30T05:35:48.925Z,15.57
2016-09-30T05:36:48.930Z,15.58
2016-09-30T05:37:48.956Z,15.55
2016-09-30T05:38:48.979Z,15.55
2016-09-30T05:39:48.987Z,15.55
2016-09-30T05:40:48.999Z,15.54
2016-09-30T05:41:49.029Z,15.58
2016-09-30T05:42:49.054Z,15.57
2016-09-30T05:43:49.075Z,15.59
2016-09-30T05:44:49.099Z,15.59
2016-09-30T05:45:49.130Z,15.58
2016-09-30T05:46:49.130Z,15.57
2016-09-30T05:47:49.146Z,15.55
2016-09-30T05:48:49.176Z,15.54
2016-09-30T05:49:49.188Z,15.44
2016-09-30T05:50:49.196Z,15.47
2016-09-30T05:51:49.234Z,15.57
2016-09-30T05:52:49.247Z,15.57
2016-09-30T05:53:49.278Z,15.58
2016-09-30T05:54:49.293Z,15.61
2016-09-30T05:55:49.621Z,15.54
2016-09-30T05:56:49.331Z,15.59
2016-09-30T05:57:49.351Z,15.58
2016-09-30T05:58:49.376Z,15.55
2016-09-30T05:59:49.388Z,15.59
2016-09-30T06:00:49.400Z,15.62
2016-09-30T06:01:49.420Z,15.61
2016-09-30T06:02:49.448Z,15.61
2016-09-30T06:03:49.472Z,15.55
2016-09-30T06:04:49.478Z,15.54
2016-09-30T06:05:49.500Z,15.55
2016-09-30T06:06:49.520Z,15.55
2016-09-30T06:07:49.557Z,15.61
2016-09-30T06:08:49.576Z,15.52
2016-09-30T06:09:49.577Z,15.61
2016-09-30T06:10:49.595Z,15.62
2016-09-30T06:11:49.626Z,15.64
2016-09-30T06:12:49.643Z,15.58
2016-09-30T06:13:49.662Z,15.64
2016-09-30T06:14:49.684Z,15.61
2016-09-30T06:15:49.706Z,15.59
2016-09-30T06:16:49.732Z,15.72
2016-09-30T06:17:49.746Z,15.72
2016-09-30T06:18:49.766Z,15.65
2016-09-30T06:19:49.799Z,15.62
2016-09-30T06:20:49.805Z,15.72
2016-09-30T06:21:49.831Z,15.65
2016-09-30T06:22:49.836Z,15.76
2016-09-30T06:23:49.865Z,15.67
2016-09-30T06:24:49.893Z,15.65
2016-09-30T06:25:49.896Z,15.68
2016-09-30T06:26:49.920Z,15.65
2016-09-30T06:27:49.957Z,15.72
2016-09-30T06:28:49.957Z,15.67
2016-09-30T06:29:49.986Z,15.65
2016-09-30T06:30:49.996Z,15.72
2016-09-30T06:31:50.033Z,15.8
2016-09-30T06:32:50.047Z,15.77
2016-09-30T06:33:50.063Z,15.77
2016-09-30T06:34:50.083Z,15.84
2016-09-30T06:35:50.108Z,15.76
2016-09-30T06:36:50.124Z,15.8
2016-09-30T06:37:50.137Z,15.83
2016-09-30T06:38:50.155Z,15.76
2016-09-30T06:39:50.190Z,15.73
2016-09-30T06:40:50.220Z,15.88
2016-09-30T06:41:50.230Z,15.92
2016-09-30T06:42:50.240Z,15.9
2016-09-30T06:43:50.275Z,15.91
2016-09-30T06:44:50.293Z,15.86
2016-09-30T06:45:50.302Z,15.79
2016-09-30T06:46:50.332Z,15.92
2016-09-30T06:47:50.351Z,15.94
2016-09-30T06:48:50.379Z,16.01
2016-09-30T06:49:50.389Z,16.01
2016-09-30T06:50:50.407Z,15.95
2016-09-30T06:51:50.438Z,16
2016-09-30T06:52:50.437Z,16.09
2016-09-30T06:53:50.476Z,16.1
2016-09-30T06:54:50.490Z,16.05
2016-09-30T06:55:50.515Z,16.08
2016-09-30T06:56:50.528Z,16.08
2016-09-30T06:57:50.544Z,16.23
2016-09-30T06:58:50.556Z,16.21
2016-09-30T06:59:50.591Z,16.26
2016-09-30T07:00:50.620Z,16.24
2016-09-30T07:01:50.629Z,16.21
2016-09-30T07:02:50.633Z,16.31
2016-09-30T07:03:50.658Z,16.26
2016-09-30T07:04:50.690Z,16.35
2016-09-30T07:05:50.705Z,16.32
2016-09-30T07:06:50.737Z,16.32
2016-09-30T07:07:50.758Z,16.33
2016-09-30T07:08:50.767Z,16.33
2016-09-30T07:09:50.787Z,16.32
2016-09-30T07:10:50.826Z,16.35
2016-09-30T07:11:50.836Z,16.39
2016-09-30T07:12:50.862Z,16.5
2016-09-30T07:13:50.892Z,16.38
2016-09-30T07:14:50.885Z,16.41
2016-09-30T07:15:50.917Z,16.38
2016-09-30T07:16:50.936Z,16.53
2016-09-30T07:17:50.957Z,16.53
2016-09-30T07:18:50.980Z,16.46
2016-09-30T07:19:50.994Z,16.51
2016-09-30T07:20:51.006Z,16.57
2016-09-30T07:21:51.034Z,16.58
2016-09-30T07:22:51.053Z,16.66
2016-09-30T07:23:51.077Z,16.72
2016-09-30T07:24:51.094Z,16.68
2016-09-30T07:25:51.118Z,16.76
2016-09-30T07:26:51.140Z,16.91
2016-09-30T07:27:51.155Z,16.89
2016-09-30T07:28:51.177Z,16.96
2016-09-30T07:29:51.196Z,17.02
2016-09-30T07:30:51.205Z,17.02
2016-09-30T07:31:51.236Z,17.06
2016-09-30T07:32:51.264Z,17.04
2016-09-30T07:33:51.285Z,17.2
2016-09-30T07:34:51.302Z,17.24
2016-09-30T07:35:51.329Z,17.23
2016-09-30T07:36:51.336Z,17.24
2016-09-30T07:37:51.373Z,17.22
2016-09-30T07:38:51.391Z,17.2
2016-09-30T07:39:51.414Z,17.26
2016-09-30T07:40:51.426Z,17.29
2016-09-30T07:41:51.459Z,17.26
2016-09-30T07:42:51.459Z,17.23
2016-09-30T07:43:51.487Z,17.29
2016-09-30T07:44:51.513Z,17.22
2016-09-30T07:45:51.525Z,17.14
2016-09-30T07:46:51.532Z,17.16
2016-09-30T07:47:51.564Z,17.16
2016-09-30T07:48:51.589Z,17.19
2016-09-30T07:49:51.618Z,17.09
2016-09-30T07:50:51.622Z,17.15
2016-09-30T07:51:51.640Z,17.16
2016-09-30T07:52:51.749Z,17.11
2016-09-30T07:53:51.717Z,17.02
2016-09-30T07:54:51.708Z,17.01
2016-09-30T07:55:51.733Z,17.02
2016-09-30T07:56:51.739Z,17.01
2016-09-30T07:57:51.775Z,17.04
2016-09-30T07:59:51.810Z,16.96
2016-09-30T08:00:51.840Z,16.97
2016-09-30T08:01:51.860Z,16.96
2016-09-30T08:02:51.893Z,16.89
2016-09-30T08:03:51.904Z,16.87
2016-09-30T08:04:51.929Z,16.79
2016-09-30T08:05:51.939Z,16.83
2016-09-30T08:06:51.961Z,16.79
2016-09-30T08:07:51.991Z,16.79
2016-09-30T08:08:52.006Z,16.76
2016-09-30T08:09:52.016Z,16.81
2016-09-30T08:10:52.048Z,16.89
2016-09-30T08:11:52.072Z,16.93
2016-09-30T08:12:52.089Z,16.91
2016-09-30T08:13:52.098Z,16.93
2016-09-30T08:14:52.127Z,16.93
2016-09-30T08:15:52.145Z,17.05
2016-09-30T08:16:52.164Z,17.12
2016-09-30T08:17:52.194Z,17.14
2016-09-30T08:18:52.199Z,17.23
2016-09-30T08:19:52.229Z,17.24
2016-09-30T08:20:52.246Z,17.33
2016-09-30T08:21:52.277Z,17.33
2016-09-30T08:22:52.296Z,17.38
2016-09-30T08:23:52.304Z,17.36
2016-09-30T08:24:52.356Z,17.38
2016-09-30T08:25:52.359Z,17.41
2016-09-30T08:26:52.361Z,17.44
2016-09-30T08:27:52.382Z,17.57
2016-09-30T08:28:52.720Z,17.65
2016-09-30T08:29:52.432Z,17.7
2016-09-30T08:30:52.450Z,17.76
2016-09-30T08:31:52.470Z,17.85
2016-09-30T08:32:52.490Z,17.92
2016-09-30T08:33:52.502Z,17.92
2016-09-30T08:34:52.542Z,17.92
2016-09-30T08:35:52.558Z,17.95
2016-09-30T08:36:52.586Z,18.04
2016-09-30T08:37:52.608Z,18.03
2016-09-30T08:38:52.618Z,18.03
2016-09-30T08:39:52.641Z,18.08
2016-09-30T08:40:52.674Z,18.08
2016-09-30T08:41:52.694Z,18.08
2016-09-30T08:42:52.707Z,18.16
2016-09-30T08:43:52.729Z,18.34
2016-09-30T08:44:52.747Z,18.33
2016-09-30T08:45:52.765Z,18.31
2016-09-30T08:46:52.784Z,18.41
2016-09-30T08:47:52.803Z,18.43
2016-09-30T08:48:52.832Z,18.38
2016-09-30T08:49:52.862Z,18.26
2016-09-30T08:50:52.879Z,18.26
2016-09-30T08:51:52.905Z,18.4
2016-09-30T08:52:52.903Z,18.37
2016-09-30T08:53:52.952Z,18.33
2016-09-30T08:54:52.950Z,18.41
2016-09-30T08:55:52.978Z,18.38
2016-09-30T08:56:52.996Z,18.47
2016-09-30T08:57:53.023Z,18.5
2016-09-30T08:58:53.034Z,18.4
2016-09-30T08:59:53.069Z,18.37
2016-09-30T09:00:53.075Z,18.43
2016-09-30T09:01:53.101Z,18.45
2016-09-30T09:02:53.141Z,18.4
2016-09-30T09:03:53.148Z,18.44
2016-09-30T09:04:53.174Z,18.4
2016-09-30T09:05:53.215Z,18.31
2016-09-30T09:06:53.210Z,18.41
2016-09-30T09:07:53.236Z,18.38
2016-09-30T09:08:53.587Z,18.45
2016-09-30T09:09:53.278Z,18.37
2016-09-30T09:10:53.308Z,18.41
2016-09-30T09:11:53.332Z,18.4
2016-09-30T09:12:53.342Z,18.41
2016-09-30T09:13:53.389Z,18.47
2016-09-30T09:14:53.379Z,18.43
2016-09-30T09:15:53.427Z,18.49
2016-09-30T09:16:53.438Z,18.44
2016-09-30T09:17:53.440Z,18.43
2016-09-30T09:18:53.652Z,18.41
2016-09-30T09:19:53.503Z,18.47
2016-09-30T09:20:53.516Z,18.45
2016-09-30T09:21:53.562Z,18.38
2016-09-30T09:22:53.545Z,18.29
2016-09-30T09:23:53.593Z,18.33
2016-09-30T09:24:53.602Z,18.2
2016-09-30T09:25:53.961Z,18.31
2016-09-30T09:26:53.637Z,18.34
2016-09-30T09:27:53.670Z,18.41
2016-09-30T09:28:53.674Z,18.38
2016-09-30T09:29:53.709Z,18.49
2016-09-30T09:30:53.720Z,18.52
2016-09-30T09:31:53.753Z,18.44
2016-09-30T09:32:53.779Z,18.41
2016-09-30T09:33:53.795Z,18.4
2016-09-30T09:34:53.815Z,18.41
2016-09-30T09:35:53.835Z,18.63
2016-09-30T09:36:53.859Z,18.73
2016-09-30T09:37:53.884Z,18.77
2016-09-30T09:38:53.904Z,18.7
2016-09-30T09:39:53.929Z,18.77
2016-09-30T09:40:53.942Z,18.8
2016-09-30T09:41:53.961Z,18.81
2016-09-30T09:42:53.987Z,18.81
2016-09-30T09:43:54.007Z,18.78
2016-09-30T09:44:54.030Z,18.75
2016-09-30T09:45:54.046Z,18.71
2016-09-30T09:46:54.068Z,18.71
2016-09-30T09:47:54.093Z,18.73
2016-09-30T09:48:54.110Z,18.89
2016-09-30T09:49:54.144Z,18.95
2016-09-30T09:50:54.161Z,18.98
2016-09-30T09:51:54.199Z,19.04
2016-09-30T09:52:54.198Z,19.07
2016-09-30T09:53:54.231Z,18.99
2016-09-30T09:54:54.251Z,19.04
2016-09-30T09:55:54.287Z,19.11
2016-09-30T09:56:54.282Z,19.07
2016-09-30T09:57:54.318Z,19.14
2016-09-30T09:58:54.334Z,19.12
2016-09-30T09:59:54.350Z,19.14
2016-09-30T10:00:54.370Z,18.98
2016-09-30T10:01:54.394Z,19.07
2016-09-30T10:02:54.426Z,19.08
2016-09-30T10:03:54.439Z,19.09
2016-09-30T10:04:54.468Z,19.07
2016-09-30T10:05:54.496Z,19
2016-09-30T10:06:54.510Z,19.04
2016-09-30T10:07:54.530Z,18.96
2016-09-30T10:08:54.552Z,19.04
2016-09-30T10:09:54.582Z,19.07
2016-09-30T10:10:54.591Z,19.07
2016-09-30T10:11:54.626Z,18.98
2016-09-30T10:12:54.640Z,19.18
2016-09-30T10:13:54.660Z,19.34
2016-09-30T10:14:54.678Z,19.39
2016-09-30T10:15:54.704Z,19.52
2016-09-30T10:16:54.731Z,19.55
2016-09-30T10:17:54.740Z,19.59
2016-09-30T10:18:54.774Z,19.49
2016-09-30T10:19:54.785Z,19.52
2016-09-30T10:20:54.820Z,19.64
2016-09-30T10:21:54.837Z,19.59
2016-09-30T10:22:54.856Z,19.71
2016-09-30T10:23:54.877Z,19.7
2016-09-30T10:24:54.916Z,19.59
2016-09-30T10:25:54.928Z,19.56
2016-09-30T10:26:54.940Z,19.63
2016-09-30T10:27:54.970Z,19.66
2016-09-30T10:28:54.991Z,19.63
2016-09-30T10:29:55.347Z,19.73
2016-09-30T10:30:55.031Z,19.63
2016-09-30T10:31:55.068Z,19.54
2016-09-30T10:32:55.081Z,19.63
2016-09-30T10:33:55.106Z,19.74
2016-09-30T10:34:55.107Z,19.89
2016-09-30T10:35:55.157Z,19.95
2016-09-30T10:36:55.187Z,20
2016-09-30T10:37:55.197Z,20.07
2016-09-30T10:38:55.210Z,20.06
2016-09-30T10:39:55.235Z,20.07
2016-09-30T10:40:55.252Z,20.18
2016-09-30T10:41:55.282Z,20.11
2016-09-30T10:42:55.302Z,20.14
2016-09-30T10:43:55.331Z,20.06
2016-09-30T10:44:55.331Z,20.09
2016-09-30T10:45:55.383Z,20.03
2016-09-30T10:46:55.373Z,20.06
2016-09-30T10:47:55.407Z,20.06
2016-09-30T10:48:55.426Z,20.19
2016-09-30T10:49:55.459Z,20.22
2016-09-30T10:50:55.471Z,20.29
2016-09-30T10:51:55.504Z,20.37
2016-09-30T10:52:55.507Z,20.4
2016-09-30T10:53:55.536Z,20.41
2016-09-30T10:54:55.567Z,20.43
2016-09-30T10:55:55.592Z,20.32
2016-09-30T10:56:55.615Z,20.56
2016-09-30T10:57:55.640Z,20.58
2016-09-30T10:58:55.656Z,20.36
2016-09-30T10:59:55.686Z,20.39
2016-09-30T11:00:55.695Z,20.55
2016-09-30T11:01:55.727Z,20.55
2016-09-30T11:02:55.743Z,20.41
2016-09-30T11:03:55.774Z,20.28
2016-09-30T11:04:55.790Z,20.21
2016-09-30T11:05:55.800Z,20.24
2016-09-30T11:06:55.843Z,20.14
2016-09-30T11:07:55.854Z,20.26
2016-09-30T11:08:55.872Z,20.19
2016-09-30T11:09:55.919Z,20.22
2016-09-30T11:10:55.915Z,20.02
2016-09-30T11:11:55.954Z,19.91
2016-09-30T11:12:55.971Z,19.88
2016-09-30T11:13:55.994Z,20.07
2016-09-30T11:14:56.007Z,20.24
2016-09-30T11:15:56.039Z,20.14
2016-09-30T11:16:56.069Z,20.26
2016-09-30T11:17:56.084Z,20.4
2016-09-30T11:18:56.105Z,20.58
2016-09-30T11:19:56.147Z,20.59
2016-09-30T11:20:56.149Z,20.62
2016-09-30T11:21:56.171Z,20.69
2016-09-30T11:22:56.192Z,20.65
2016-09-30T11:23:56.226Z,20.77
2016-09-30T11:24:56.234Z,20.78
2016-09-30T11:25:56.266Z,20.82
2016-09-30T11:26:56.283Z,20.74
2016-09-30T11:27:56.310Z,20.65
2016-09-30T11:28:56.333Z,20.4
2016-09-30T11:29:56.341Z,20.4
2016-09-30T11:30:56.385Z,20.16
2016-09-30T11:31:56.400Z,20.16
2016-09-30T11:32:56.415Z,20.18
2016-09-30T11:33:56.485Z,20.14
2016-09-30T11:34:56.457Z,20.13
2016-09-30T11:35:56.475Z,20.18
2016-09-30T11:36:56.499Z,20.26
2016-09-30T11:37:56.537Z,20.19
2016-09-30T11:38:56.562Z,20.24
2016-09-30T11:39:56.590Z,20.18
2016-09-30T11:40:56.600Z,20.19
2016-09-30T11:41:56.625Z,20.14
2016-09-30T11:42:56.629Z,20.19
2016-09-30T11:43:56.665Z,20.21
2016-09-30T11:44:56.684Z,20.22
2016-09-30T11:45:56.711Z,20.34
2016-09-30T11:46:56.736Z,20.41
2016-09-30T11:47:56.775Z,20.4
2016-09-30T11:48:56.766Z,20.39
2016-09-30T11:49:56.801Z,20.41
2016-09-30T11:50:56.815Z,20.5
2016-09-30T11:51:57.180Z,20.55
2016-09-30T11:52:56.853Z,20.52
2016-09-30T11:53:56.897Z,20.39
2016-09-30T11:54:56.899Z,20.47
2016-09-30T11:55:56.927Z,20.37
2016-09-30T11:56:56.956Z,20.47
2016-09-30T11:57:56.983Z,20.5
2016-09-30T11:58:57.006Z,20.22
2016-09-30T11:59:57.030Z,20.21
2016-09-30T12:00:57.054Z,20.19
2016-09-30T12:01:57.059Z,20.22
2016-09-30T12:02:57.083Z,20.28
2016-09-30T12:03:57.111Z,20.39
2016-09-30T12:04:57.130Z,20.5
2016-09-30T12:05:57.164Z,20.55
2016-09-30T12:06:57.184Z,20.69
2016-09-30T12:07:57.212Z,20.66
2016-09-30T12:08:57.228Z,20.74
2016-09-30T12:09:57.243Z,20.69
2016-09-30T12:10:57.261Z,20.66
2016-09-30T12:11:57.288Z,20.5
2016-09-30T12:12:57.321Z,20.39
2016-09-30T12:13:57.351Z,20.36
2016-09-30T12:14:57.350Z,20.47
2016-09-30T12:15:57.401Z,20.39
2016-09-30T12:16:57.395Z,20.4
2016-09-30T12:17:57.434Z,20.25
2016-09-30T12:18:57.486Z,20.22
2016-09-30T12:19:57.485Z,20.19
2016-09-30T12:20:57.564Z,20.16
2016-09-30T12:21:57.509Z,20.21
2016-09-30T12:22:57.566Z,20.14
2016-09-30T12:23:57.569Z,20.24
2016-09-30T12:24:57.618Z,20.19
2016-09-30T12:25:57.618Z,20.09
2016-09-30T12:26:57.665Z,20.19
2016-09-30T12:27:57.659Z,20.22
2016-09-30T12:28:57.700Z,20.19
2016-09-30T12:29:57.696Z,20.39
2016-09-30T12:30:57.730Z,20.37
2016-09-30T12:31:57.755Z,20.41
2016-09-30T12:32:57.747Z,20.36
2016-09-30T12:33:57.783Z,20.41
2016-09-30T12:34:57.808Z,20.37
2016-09-30T12:35:57.826Z,20.24
2016-09-30T12:36:57.860Z,20.19
2016-09-30T12:37:57.870Z,20.31
2016-09-30T12:38:57.900Z,20.22
2016-09-30T12:39:57.928Z,20.24
2016-09-30T12:40:57.939Z,20.26
2016-09-30T12:41:57.967Z,20.13
2016-09-30T12:42:58.004Z,20.03
2016-09-30T12:43:58.005Z,20.11
2016-09-30T12:44:58.034Z,20.06
2016-09-30T12:45:58.043Z,20.16
2016-09-30T12:46:58.084Z,20.07
2016-09-30T12:47:58.092Z,20.13
2016-09-30T12:48:58.121Z,20.22
2016-09-30T12:49:58.148Z,20.25
2016-09-30T12:50:58.182Z,20.32
2016-09-30T12:51:58.184Z,20.29
2016-09-30T12:52:58.208Z,20.34
2016-09-30T12:53:58.248Z,20.4
2016-09-30T12:54:58.272Z,20.44
2016-09-30T12:55:58.273Z,20.44
2016-09-30T12:56:58.291Z,20.41